Terminal Aerodrome Forecast
Issued by NWS

Home | Current Version | Previous Version | Text Only | Print | Product List | Glossary On
Versions: 1 2 3 4 5 6 7 8 9 10 11 12 13 14 15 16 17 18 19 20 21 22 23 24
000
FTUS44 KLZK 270500
TAFHOT
TAF
KHOT 270537Z 2706/2806 11004KT P6SM SCT100 BKN250
      TEMPO 2710/2714 5SM BR FEW010
     FM271400 22006KT P6SM VCSH SCT035 SCT100 BKN250
     FM271800 22007KT P6SM VCTS SCT035CB BKN100 OVC250=

USA.gov is the U.S. government's official web portal to all federal, state and local government web resources and services.